Terminal Aerodrome Forecast
Issued by NWS

Home | Current Version | Previous Version | Text Only | Print | Product List | Glossary On
Versions: 1 2 3 4 5 6 7 8 9 10 11 12 13 14 15 16
000
FTUS42 KRAH 201128
TAFRWI
TAF
KRWI 201128Z 2012/2112 00000KT P6SM SCT025
     FM201500 12005KT P6SM OVC035
      TEMPO 2015/2017 -RA
     FM210700 00000KT 1 1/2SM BR OVC003=

USA.gov is the U.S. government's official web portal to all federal, state and local government web resources and services.